Time;durP1;ratioP1;P1;durP2;ratioP2;P2;SDS_P1;SDS_P2;PMS_P1;PMS_P2;Temp;Humidity;BMP_temperature;BMP_pressure;BME280_temperature;BME280_humidity;BME280_pressure;Samples;Min_cycle;Max_cycle;Signal;HPM_P1;HPM_P2
2022/07/08 00:01:59;;;;;;;;;;;;;;;15.55;64.73;103007.13;5080199;28;19911;-60
2022/07/08 00:04:24;;;;;;;;;;;;;;;15.45;65.18;103001.00;5082573;28;19951;-60
2022/07/08 00:06:49;;;;;;;;;;;;;;;15.39;65.73;103006.97;5085340;28;20367;-60
2022/07/08 00:09:15;;;;;;;;;;;;;;;15.32;65.65;103001.34;5083127;28;19916;-61
2022/07/08 00:11:41;;;;;;;;;;;;;;;15.21;65.87;103008.75;5082860;28;20352;-61
2022/07/08 00:14:07;;;;;;;;;;;;;;;15.10;65.96;103010.63;5082324;28;19912;-60
2022/07/08 00:16:33;;;;;;;;;;;;;;;15.07;66.29;103013.59;5076045;28;19915;-60
2022/07/08 00:18:59;;;;;;;;;;;;;;;14.98;66.55;103006.44;5075755;28;20044;-61
2022/07/08 00:21:24;;;;;;;;;;;;;;;14.92;66.76;103015.03;5078538;28;19971;-61
2022/07/08 00:23:50;;;;;;;;;;;;;;;14.90;66.90;103009.00;5079746;28;19912;-60
2022/07/08 00:26:15;;;;;;;;;;;;;;;14.90;67.42;103005.47;5079742;28;19915;-61
2022/07/08 00:28:40;;;;;;;;;;;;;;;14.92;67.35;103008.84;5077703;28;19922;-60
2022/07/08 00:31:05;;;;;;;;;;;;;;;14.94;67.32;103005.03;5060388;28;20024;-61
2022/07/08 00:33:30;;;;;;;;;;;;;;;14.94;67.32;103002.38;5082526;28;19927;-61
2022/07/08 00:35:56;;;;;;;;;;;;;;;14.93;67.32;103006.03;5080002;28;20006;-61
2022/07/08 00:38:21;;;;;;;;;;;;;;;14.91;67.55;103004.50;5077624;28;20242;-61
2022/07/08 00:40:46;;;;;;;;;;;;;;;14.90;67.38;103006.31;5077300;28;20003;-60
2022/07/08 00:43:24;;;;;;;;;;;;;;;14.88;67.65;103006.47;5077060;28;19919;-61
2022/07/08 00:45:49;;;;;;;;;;;;;;;14.85;67.70;103013.94;5078810;28;20383;-61
2022/07/08 00:48:15;;;;;;;;;;;;;;;14.79;67.76;103012.72;5082516;28;19912;-61
2022/07/08 00:50:40;;;;;;;;;;;;;;;14.73;68.23;103007.06;5076184;28;20003;-61
2022/07/08 00:53:05;;;;;;;;;;;;;;;14.63;68.40;103017.78;5074006;28;19919;-60
2022/07/08 00:55:31;;;;;;;;;;;;;;;14.51;68.20;103011.78;5078829;28;19912;-61
2022/07/08 00:57:56;;;;;;;;;;;;;;;14.33;68.53;103005.44;5073536;28;19920;-61
2022/07/08 01:00:21;;;;;;;;;;;;;;;14.15;68.88;103009.78;5081516;28;19923;-60
2022/07/08 01:02:46;;;;;;;;;;;;;;;14.05;69.55;103008.94;5073109;28;19915;-61
2022/07/08 01:05:12;;;;;;;;;;;;;;;13.94;69.58;103015.28;5077858;28;19947;-61
2022/07/08 01:07:37;;;;;;;;;;;;;;;13.86;69.71;103013.28;5079800;28;19920;-60
2022/07/08 01:10:03;;;;;;;;;;;;;;;13.72;70.35;103002.19;5079360;28;19934;-60
2022/07/08 01:12:28;;;;;;;;;;;;;;;13.72;70.83;103023.53;5076317;28;19951;-60
2022/07/08 01:14:54;;;;;;;;;;;;;;;13.71;70.70;103021.84;5079680;28;20392;-60
2022/07/08 01:17:19;;;;;;;;;;;;;;;13.69;70.59;103024.66;5083513;28;20382;-60
2022/07/08 01:19:44;;;;;;;;;;;;;;;13.70;70.99;103023.69;5082127;28;20340;-60
2022/07/08 01:22:09;;;;;;;;;;;;;;;13.72;71.03;103015.53;5081657;28;19916;-61
2022/07/08 01:24:35;;;;;;;;;;;;;;;13.71;70.93;103012.00;5087717;28;19919;-61
2022/07/08 01:27:00;;;;;;;;;;;;;;;13.67;71.06;103015.94;5080418;28;20370;-61
2022/07/08 01:29:25;;;;;;;;;;;;;;;13.65;71.58;103023.25;5082094;28;20374;-60
2022/07/08 01:31:52;;;;;;;;;;;;;;;13.60;71.68;103012.16;5089527;28;19967;-61
2022/07/08 01:34:17;;;;;;;;;;;;;;;13.59;71.60;103015.81;5084460;28;19912;-60
2022/07/08 01:36:42;;;;;;;;;;;;;;;13.60;71.51;103004.97;5089031;28;20294;-61
2022/07/08 01:39:08;;;;;;;;;;;;;;;13.62;71.86;103012.84;5091423;28;20007;-60
2022/07/08 01:41:33;;;;;;;;;;;;;;;13.64;71.63;103019.75;5088792;28;20298;-60
2022/07/08 01:43:58;;;;;;;;;;;;;;;13.66;72.20;103005.41;5090046;28;20414;-60
2022/07/08 01:46:23;;;;;;;;;;;;;;;13.66;72.56;103008.06;5087835;28;20007;-60
2022/07/08 01:48:48;;;;;;;;;;;;;;;13.65;72.68;103015.25;5088473;28;19962;-60
2022/07/08 01:51:13;;;;;;;;;;;;;;;13.65;72.67;103004.56;5082425;28;19981;-60
2022/07/08 01:53:39;;;;;;;;;;;;;;;13.64;72.64;103005.53;5090806;28;19912;-61
2022/07/08 01:56:04;;;;;;;;;;;;;;;13.63;72.83;103004.69;5096759;28;19908;-60
2022/07/08 01:58:29;;;;;;;;;;;;;;;13.65;72.83;103004.56;5086297;28;19912;-60
2022/07/08 02:00:54;;;;;;;;;;;;;;;13.65;72.78;103001.91;5086228;28;19920;-60
2022/07/08 02:03:20;;;;;;;;;;;;;;;13.69;72.66;103000.63;5087001;28;19926;-61
2022/07/08 02:05:45;;;;;;;;;;;;;;;13.73;72.63;103001.19;5091394;28;20626;-61
2022/07/08 02:08:11;;;;;;;;;;;;;;;13.75;73.02;103001.91;5084249;28;20008;-60
2022/07/08 02:13:20;;;;;;;;;;;;;;;13.82;72.79;103011.88;5081167;28;20287;-59
2022/07/08 02:15:46;;;;;;;;;;;;;;;13.84;72.44;103007.25;5088129;28;19955;-60
2022/07/08 02:18:11;;;;;;;;;;;;;;;13.87;72.36;103009.63;5078598;28;19924;-60
2022/07/08 02:20:36;;;;;;;;;;;;;;;13.89;72.59;103009.53;5063576;28;20275;-60
2022/07/08 02:23:02;;;;;;;;;;;;;;;13.89;72.47;103009.53;5089810;28;19920;-61
2022/07/08 02:25:27;;;;;;;;;;;;;;;13.91;72.84;103012.91;5090582;28;19912;-60
2022/07/08 02:27:52;;;;;;;;;;;;;;;13.89;73.09;103009.53;5087127;28;19912;-60
2022/07/08 02:30:17;;;;;;;;;;;;;;;13.86;72.88;103010.63;5088774;28;19908;-61
2022/07/08 02:32:42;;;;;;;;;;;;;;;13.85;73.05;103008.09;5086206;28;19915;-61
2022/07/08 02:35:08;;;;;;;;;;;;;;;13.82;73.50;103019.03;5088231;28;20003;-60
2022/07/08 02:37:33;;;;;;;;;;;;;;;13.77;73.44;103019.47;5083421;28;19916;-60
2022/07/08 02:39:58;;;;;;;;;;;;;;;13.70;73.37;103021.00;5087100;28;19973;-61
2022/07/08 02:42:24;;;;;;;;;;;;;;;13.66;73.54;103021.44;5085804;28;20466;-61
2022/07/08 02:44:49;;;;;;;;;;;;;;;13.62;74.02;103015.53;5084575;28;19970;-60
2022/07/08 02:47:14;;;;;;;;;;;;;;;13.60;74.06;103022.81;5083747;28;19951;-60
2022/07/08 02:49:39;;;;;;;;;;;;;;;13.58;74.33;103016.75;5081173;28;19919;-61
2022/07/08 02:52:05;;;;;;;;;;;;;;;13.52;74.51;103015.47;5087109;28;20000;-60
2022/07/08 02:54:30;;;;;;;;;;;;;;;13.43;74.69;103018.13;5088774;28;19915;-61
2022/07/08 02:56:55;;;;;;;;;;;;;;;13.42;74.58;103016.44;5088163;28;20109;-60
2022/07/08 02:59:20;;;;;;;;;;;;;;;13.43;74.69;103012.78;5088031;28;19947;-60
2022/07/08 03:01:46;;;;;;;;;;;;;;;13.41;74.85;103022.75;5088370;28;19915;-60
2022/07/08 03:04:11;;;;;;;;;;;;;;;13.40;74.63;103029.09;5089208;28;20332;-61
2022/07/08 03:06:36;;;;;;;;;;;;;;;13.41;74.79;103028.09;5089194;28;19914;-60
2022/07/08 03:09:01;;;;;;;;;;;;;;;13.38;74.87;103020.38;5089822;28;19912;-60
2022/07/08 03:11:27;;;;;;;;;;;;;;;13.33;74.83;103021.63;5082554;28;19920;-61
2022/07/08 03:13:52;;;;;;;;;;;;;;;13.29;75.21;103017.50;5089562;28;19915;-61
2022/07/08 03:16:17;;;;;;;;;;;;;;;13.29;75.27;103014.00;5088497;28;20209;-60
2022/07/08 03:18:42;;;;;;;;;;;;;;;13.26;75.40;103022.28;5086179;28;19912;-61
2022/07/08 03:21:08;;;;;;;;;;;;;;;13.24;75.63;103019.75;5084109;28;19912;-61
2022/07/08 03:23:33;;;;;;;;;;;;;;;13.21;75.80;103021.84;5086474;28;19912;-60
2022/07/08 03:25:58;;;;;;;;;;;;;;;13.16;75.91;103024.88;5083630;28;19920;-60
2022/07/08 03:28:23;;;;;;;;;;;;;;;13.14;75.97;103021.50;5086562;28;19963;-61
2022/07/08 03:30:48;;;;;;;;;;;;;;;13.08;76.09;103021.19;5087206;28;19912;-61
2022/07/08 03:33:14;;;;;;;;;;;;;;;13.03;76.14;103026.94;5089050;28;19997;-61
2022/07/08 03:35:39;;;;;;;;;;;;;;;12.99;76.44;103026.34;5087136;28;19919;-60
2022/07/08 03:38:04;;;;;;;;;;;;;;;12.96;76.43;103028.44;5089642;28;19916;-61
2022/07/08 03:43:13;;;;;;;;;;;;;;;12.82;76.88;103034.97;5085104;28;19915;-61
2022/07/08 03:45:38;;;;;;;;;;;;;;;12.71;76.88;103043.84;5081040;28;19908;-60
2022/07/08 03:48:04;;;;;;;;;;;;;;;12.64;77.27;103034.69;5086110;28;20482;-60
2022/07/08 03:50:29;;;;;;;;;;;;;;;12.61;77.29;103021.63;5088968;28;19912;-60
2022/07/08 03:52:54;;;;;;;;;;;;;;;12.60;77.49;103032.44;5068540;28;20362;-61
2022/07/08 03:55:22;;;;;;;;;;;;;;;12.57;77.94;103033.53;5088333;28;19915;-61
2022/07/08 03:57:48;;;;;;;;;;;;;;;12.56;77.72;103025.66;5087887;28;19919;-60
2022/07/08 04:00:13;;;;;;;;;;;;;;;12.54;77.56;103025.81;5086878;28;19912;-60
2022/07/08 04:02:38;;;;;;;;;;;;;;;12.53;77.98;103026.78;5086624;28;20329;-61
2022/07/08 04:05:04;;;;;;;;;;;;;;;12.54;77.79;103031.13;5086838;28;20481;-60
2022/07/08 04:07:29;;;;;;;;;;;;;;;12.54;77.85;103028.47;5088669;28;19908;-61
2022/07/08 04:09:54;;;;;;;;;;;;;;;12.54;77.99;103032.94;5086971;28;19920;-61
2022/07/08 04:12:19;;;;;;;;;;;;;;;12.52;77.92;103030.41;5084692;28;19933;-60
2022/07/08 04:14:45;;;;;;;;;;;;;;;12.53;77.62;103032.09;5088307;28;19908;-60
2022/07/08 04:17:10;;;;;;;;;;;;;;;12.55;77.71;103038.16;5089766;28;20432;-60
2022/07/08 04:19:35;;;;;;;;;;;;;;;12.54;77.48;103036.47;5082779;28;19920;-60
2022/07/08 04:22:00;;;;;;;;;;;;;;;12.54;77.81;103033.81;5081456;28;20406;-60
2022/07/08 04:24:25;;;;;;;;;;;;;;;12.53;77.85;103033.94;5081378;28;20009;-59
2022/07/08 04:26:51;;;;;;;;;;;;;;;12.63;78.12;103035.69;5082611;28;19912;-61
2022/07/08 04:29:16;;;;;;;;;;;;;;;12.67;78.10;103037.09;5082234;28;20384;-60
2022/07/08 04:31:41;;;;;;;;;;;;;;;12.71;78.04;103043.00;5082743;28;20157;-63
2022/07/08 04:34:06;;;;;;;;;;;;;;;12.72;77.93;103031.38;5075969;28;19916;-63
2022/07/08 04:36:31;;;;;;;;;;;;;;;12.72;78.14;103042.03;5078445;28;19931;-63
2022/07/08 04:38:58;;;;;;;;;;;;;;;12.73;78.38;103040.25;5080439;28;20376;-63
2022/07/08 04:41:23;;;;;;;;;;;;;;;12.73;78.32;103038.41;5082179;28;19923;-62
2022/07/08 04:43:48;;;;;;;;;;;;;;;12.77;78.47;103050.50;5083608;28;19915;-62
2022/07/08 04:46:14;;;;;;;;;;;;;;;12.82;78.29;103050.13;5080875;28;20422;-63
2022/07/08 04:48:39;;;;;;;;;;;;;;;12.82;78.83;103055.44;5084254;28;19916;-63
2022/07/08 04:51:05;;;;;;;;;;;;;;;12.81;78.73;103056.44;5079983;28;19924;-63
2022/07/08 04:53:30;;;;;;;;;;;;;;;12.81;78.81;103059.09;5085099;28;19912;-63
2022/07/08 04:55:55;;;;;;;;;;;;;;;12.77;78.75;103063.00;5086108;28;19912;-62
2022/07/08 04:58:20;;;;;;;;;;;;;;;12.78;79.13;103067.34;5085155;28;21266;-63
2022/07/08 05:00:46;;;;;;;;;;;;;;;12.79;79.30;103072.56;5086082;28;19919;-63
2022/07/08 05:03:11;;;;;;;;;;;;;;;12.83;79.11;103075.81;5085478;28;19998;-62
2022/07/08 05:05:36;;;;;;;;;;;;;;;12.84;79.29;103075.66;5085750;28;19919;-62
2022/07/08 05:08:02;;;;;;;;;;;;;;;12.87;79.03;103082.56;5086979;28;19908;-62
2022/07/08 05:10:27;;;;;;;;;;;;;;;12.90;79.18;103095.63;5092255;28;19912;-62
2022/07/08 05:12:53;;;;;;;;;;;;;;;12.95;78.90;103088.06;5085001;28;19912;-63
2022/07/08 05:15:19;;;;;;;;;;;;;;;13.03;79.08;103091.81;5089193;28;19912;-63
2022/07/08 05:17:44;;;;;;;;;;;;;;;13.08;79.17;103091.41;5091874;28;19972;-63
2022/07/08 05:20:10;;;;;;;;;;;;;;;13.14;78.40;103092.69;5090377;28;20250;-62
2022/07/08 05:22:36;;;;;;;;;;;;;;;13.21;78.56;103099.22;5090864;28;19908;-62
2022/07/08 05:25:02;;;;;;;;;;;;;;;13.27;78.69;103096.84;5091168;28;20248;-63
2022/07/08 05:27:27;;;;;;;;;;;;;;;13.35;78.63;103098.03;5095372;28;19918;-62
2022/07/08 05:29:53;;;;;;;;;;;;;;;13.40;78.43;103095.81;5090826;28;19908;-63
2022/07/08 05:32:18;;;;;;;;;;;;;;;13.44;78.51;103099.88;5086084;28;19931;-63
2022/07/08 05:34:44;;;;;;;;;;;;;;;13.47;78.61;103105.81;5092158;28;19908;-63
2022/07/08 05:37:10;;;;;;;;;;;;;;;13.50;78.26;103104.69;5089704;28;20062;-63
2022/07/08 05:39:35;;;;;;;;;;;;;;;13.55;78.47;103105.13;5091387;28;19908;-63
2022/07/08 05:42:00;;;;;;;;;;;;;;;13.60;78.69;103109.09;5090987;28;19912;-62
2022/07/08 05:44:25;;;;;;;;;;;;;;;13.67;78.64;103108.56;5089686;28;19956;-63
2022/07/08 05:46:50;;;;;;;;;;;;;;;13.72;78.65;103109.84;5091014;28;19912;-62
2022/07/08 05:49:15;;;;;;;;;;;;;;;13.76;78.28;103108.59;5090328;28;19968;-62
2022/07/08 05:51:41;;;;;;;;;;;;;;;13.84;78.45;103108.72;5089578;28;20264;-63
2022/07/08 05:54:06;;;;;;;;;;;;;;;13.90;78.36;103110.88;5091482;28;19935;-62
2022/07/08 05:56:31;;;;;;;;;;;;;;;13.96;78.22;103109.50;5090180;28;19912;-63
2022/07/08 05:58:56;;;;;;;;;;;;;;;14.02;78.24;103113.44;5090248;28;20043;-62
2022/07/08 06:01:21;;;;;;;;;;;;;;;14.07;78.16;103120.03;5087042;28;20054;-63
2022/07/08 06:03:46;;;;;;;;;;;;;;;14.12;78.21;103117.81;5084677;28;20295;-63
2022/07/08 06:06:12;;;;;;;;;;;;;;;14.17;78.50;103117.41;5090023;28;20006;-62
2022/07/08 06:08:37;;;;;;;;;;;;;;;14.24;78.04;103114.03;5089489;28;19911;-62
2022/07/08 06:11:02;;;;;;;;;;;;;;;14.32;77.99;103118.69;5090014;28;19918;-63
2022/07/08 06:13:27;;;;;;;;;;;;;;;14.39;77.94;103118.97;5088224;28;19912;-63
2022/07/08 06:15:53;;;;;;;;;;;;;;;14.46;77.62;103118.31;5090800;28;19912;-63
2022/07/08 06:18:18;;;;;;;;;;;;;;;14.55;77.37;103124.63;5080928;28;19916;-62
2022/07/08 06:20:43;;;;;;;;;;;;;;;14.62;77.04;103128.44;5089905;28;19908;-62
2022/07/08 06:23:09;;;;;;;;;;;;;;;14.69;77.12;103128.69;5090042;28;19955;-63
2022/07/08 06:25:35;;;;;;;;;;;;;;;14.77;76.83;103128.84;5090241;28;19915;-62
2022/07/08 06:28:00;;;;;;;;;;;;;;;14.84;76.42;103125.47;5089413;28;19974;-63
2022/07/08 06:30:26;;;;;;;;;;;;;;;14.92;76.34;103124.75;5089356;28;19931;-62
2022/07/08 06:32:51;;;;;;;;;;;;;;;15.03;76.62;103119.22;5088459;28;19912;-63
2022/07/08 06:35:16;;;;;;;;;;;;;;;15.10;75.84;103120.34;5089806;28;19908;-63
2022/07/08 06:37:41;;;;;;;;;;;;;;;15.19;75.61;103124.81;5089782;28;20284;-63
2022/07/08 06:40:07;;;;;;;;;;;;;;;15.28;75.44;103124.94;5085894;28;19920;-63
2022/07/08 06:42:32;;;;;;;;;;;;;;;15.38;75.55;103128.44;5078810;28;20344;-63
2022/07/08 06:44:57;;;;;;;;;;;;;;;15.44;75.03;103122.50;5079401;28;20487;-62
2022/07/08 06:47:22;;;;;;;;;;;;;;;15.49;74.69;103125.56;5088833;28;19999;-63
2022/07/08 06:49:48;;;;;;;;;;;;;;;15.55;74.43;103127.66;5081755;28;20448;-62
2022/07/08 06:52:13;;;;;;;;;;;;;;;15.58;74.08;103119.34;5084598;28;20333;-63
2022/07/08 06:54:39;;;;;;;;;;;;;;;15.64;73.93;103134.88;5082228;28;20410;-62
2022/07/08 06:57:05;;;;;;;;;;;;;;;15.71;74.11;103129.75;5084319;28;20019;-62
2022/07/08 06:59:30;;;;;;;;;;;;;;;15.80;73.92;103139.56;5083338;28;20521;-62
2022/07/08 07:01:55;;;;;;;;;;;;;;;15.83;73.61;103133.06;5081809;28;20556;-63
2022/07/08 07:04:20;;;;;;;;;;;;;;;15.85;73.06;103120.34;5084262;28;20374;-62
2022/07/08 07:06:46;;;;;;;;;;;;;;;15.91;73.10;103127.81;5089336;28;19958;-63
2022/07/08 07:09:12;;;;;;;;;;;;;;;15.97;72.78;103127.22;5086995;28;20282;-63
2022/07/08 07:11:38;;;;;;;;;;;;;;;16.00;72.90;103130.44;5085521;28;20462;-62
2022/07/08 07:14:03;;;;;;;;;;;;;;;16.07;72.45;103123.47;5085533;28;19922;-63
2022/07/08 07:16:28;;;;;;;;;;;;;;;16.16;72.33;103120.88;5087046;28;19920;-62
2022/07/08 07:18:53;;;;;;;;;;;;;;;16.28;72.51;103122.34;5085152;28;19916;-63
2022/07/08 07:21:18;;;;;;;;;;;;;;;16.35;72.08;103124.25;5086717;28;19985;-62
2022/07/08 07:23:44;;;;;;;;;;;;;;;16.46;71.83;103127.69;5085337;28;19999;-63
2022/07/08 07:26:09;;;;;;;;;;;;;;;16.51;71.37;103133.47;5087328;28;19961;-62
2022/07/08 07:28:34;;;;;;;;;;;;;;;16.56;71.38;103128.50;5088332;28;20523;-62
2022/07/08 07:30:59;;;;;;;;;;;;;;;16.62;71.33;103122.50;5088087;28;20356;-63
2022/07/08 07:33:24;;;;;;;;;;;;;;;16.66;70.92;103123.91;5069764;28;19916;-63
2022/07/08 07:35:50;;;;;;;;;;;;;;;16.63;70.75;103127.72;5087306;28;19946;-62
2022/07/08 07:38:15;;;;;;;;;;;;;;;16.66;70.33;103132.78;5089236;28;19982;-63
2022/07/08 07:40:40;;;;;;;;;;;;;;;16.69;69.85;103132.47;5086703;28;20391;-63
2022/07/08 07:43:05;;;;;;;;;;;;;;;16.72;69.92;103131.31;5088907;28;20002;-63
2022/07/08 07:45:30;;;;;;;;;;;;;;;16.70;69.75;103125.28;5088509;28;20364;-63
2022/07/08 07:47:55;;;;;;;;;;;;;;;16.68;69.61;103130.81;5085617;28;20034;-62
2022/07/08 07:50:21;;;;;;;;;;;;;;;16.72;70.07;103131.31;5088599;28;19961;-63
2022/07/08 07:52:46;;;;;;;;;;;;;;;16.74;69.69;103140.06;5086046;28;19908;-63
2022/07/08 07:55:11;;;;;;;;;;;;;;;16.76;69.87;103132.69;5088812;28;19915;-63
2022/07/08 07:57:37;;;;;;;;;;;;;;;16.81;70.07;103133.09;5086936;28;19935;-62
2022/07/08 08:00:06;;;;;;;;;;;;;;;16.88;70.07;103136.00;5085925;28;19912;-62
2022/07/08 08:02:31;;;;;;;;;;;;;;;17.00;69.67;103134.72;5087861;28;19908;-63
2022/07/08 08:04:56;;;;;;;;;;;;;;;17.02;69.70;103132.72;5087262;28;19908;-63
2022/07/08 08:07:22;;;;;;;;;;;;;;;16.99;69.31;103125.00;5087746;28;19919;-63
2022/07/08 08:09:47;;;;;;;;;;;;;;;17.07;69.27;103140.34;5087868;28;19963;-63
2022/07/08 08:12:12;;;;;;;;;;;;;;;17.11;68.51;103125.59;5085888;28;19948;-62
2022/07/08 08:14:37;;;;;;;;;;;;;;;17.20;68.29;103133.53;5088360;28;19923;-63
2022/07/08 08:17:03;;;;;;;;;;;;;;;17.28;68.31;103127.38;5087507;28;19916;-62
2022/07/08 08:19:28;;;;;;;;;;;;;;;17.37;68.56;103134.50;5088088;28;19923;-63
2022/07/08 08:21:53;;;;;;;;;;;;;;;17.48;68.29;103136.88;5086898;28;20409;-63
2022/07/08 08:24:18;;;;;;;;;;;;;;;17.53;67.59;103136.41;5086320;28;19915;-63
2022/07/08 08:26:44;;;;;;;;;;;;;;;17.60;67.81;103140.97;5086464;28;20339;-62
2022/07/08 08:29:09;;;;;;;;;;;;;;;17.70;67.64;103143.59;5087104;28;19919;-63
2022/07/08 08:31:34;;;;;;;;;;;;;;;17.71;67.08;103134.53;5086878;28;19919;-60
2022/07/08 08:34:00;;;;;;;;;;;;;;;17.77;67.42;103141.94;5085996;28;19915;-61
2022/07/08 08:36:26;;;;;;;;;;;;;;;17.81;67.02;103142.44;5088132;28;19954;-61
2022/07/08 08:38:51;;;;;;;;;;;;;;;17.85;66.61;103141.13;5084051;28;19912;-60
2022/07/08 08:41:17;;;;;;;;;;;;;;;17.89;66.97;103137.94;5087392;28;19908;-61
2022/07/08 08:43:42;;;;;;;;;;;;;;;18.05;67.28;103141.69;5087628;28;20298;-61
2022/07/08 08:46:07;;;;;;;;;;;;;;;18.16;65.51;103144.06;5086162;28;19962;-61
2022/07/08 08:48:37;;;;;;;;;;;;;;;18.12;64.90;103132.78;5078992;28;19920;-61
2022/07/08 08:51:03;;;;;;;;;;;;;;;18.12;64.96;103132.78;5080437;28;20026;-60
2022/07/08 08:53:40;;;;;;;;;;;;;;;18.30;65.04;103137.22;5087938;28;19914;-61
2022/07/08 08:56:08;;;;;;;;;;;;;;;18.41;65.45;103132.34;5085226;28;19908;-61
2022/07/08 08:58:33;;;;;;;;;;;;;;;18.54;65.15;103126.50;5086148;28;19956;-60
2022/07/08 09:00:58;;;;;;;;;;;;;;;18.65;64.72;103128.88;5086298;28;20217;-61
2022/07/08 09:03:24;;;;;;;;;;;;;;;18.78;64.47;103118.41;5085871;28;19912;-60
2022/07/08 09:05:49;;;;;;;;;;;;;;;18.81;63.42;103117.28;5087179;28;19912;-61
2022/07/08 09:08:14;;;;;;;;;;;;;;;18.84;63.36;103115.06;5087195;28;19908;-60
2022/07/08 09:10:44;;;;;;;;;;;;;;;18.96;63.40;103122.78;5086629;28;20344;-60
2022/07/08 09:13:11;;;;;;;;;;;;;;;18.99;61.87;103117.91;5084479;28;20367;-61
2022/07/08 09:15:39;;;;;;;;;;;;;;;19.03;62.02;103118.41;5087567;28;19927;-61
2022/07/08 09:18:06;;;;;;;;;;;;;;;19.05;61.35;103113.69;5085431;28;20592;-61
2022/07/08 09:20:42;;;;;;;;;;;;;;;19.05;60.85;103119.91;5086327;28;20252;-61
2022/07/08 09:23:11;;;;;;;;;;;;;;;19.04;61.09;103114.69;5086588;28;19951;-61
2022/07/08 09:25:36;;;;;;;;;;;;;;;19.19;61.83;103115.69;5086429;28;19916;-61
2022/07/08 09:28:01;;;;;;;;;;;;;;;19.28;61.63;103120.03;5086003;28;19919;-61
2022/07/08 09:30:27;;;;;;;;;;;;;;;19.30;61.79;103122.56;5086740;28;19950;-61
2022/07/08 09:32:57;;;;;;;;;;;;;;;19.39;61.71;103116.16;5085812;28;20148;-61
2022/07/08 09:35:27;;;;;;;;;;;;;;;19.44;60.75;103114.59;5086367;28;19919;-61
2022/07/08 09:37:52;;;;;;;;;;;;;;;19.60;60.69;103116.41;5087824;28;19934;-61
2022/07/08 09:40:18;;;;;;;;;;;;;;;19.78;61.20;103113.47;5088837;28;19908;-61
2022/07/08 09:42:43;;;;;;;;;;;;;;;20.00;61.63;103115.41;5089604;28;19919;-60
2022/07/08 09:45:09;;;;;;;;;;;;;;;20.24;61.54;103118.94;5091262;28;19911;-60
2022/07/08 09:47:34;;;;;;;;;;;;;;;20.50;61.62;103111.34;5089612;28;19908;-60
2022/07/08 09:49:59;;;;;;;;;;;;;;;20.71;60.36;103118.78;5088936;28;19908;-60
2022/07/08 09:52:25;;;;;;;;;;;;;;;20.77;59.93;103122.59;5091037;28;19955;-61
2022/07/08 09:55:01;;;;;;;;;;;;;;;20.81;59.66;103115.81;5088928;28;19912;-61
2022/07/08 09:57:27;;;;;;;;;;;;;;;20.83;58.86;103111.09;5090357;28;19915;-61
2022/07/08 09:59:53;;;;;;;;;;;;;;;20.78;57.74;103118.88;5089972;28;19908;-61
2022/07/08 10:02:19;;;;;;;;;;;;;;;20.71;58.35;103119.63;5089806;28;19999;-61
2022/07/08 10:04:44;;;;;;;;;;;;;;;20.72;58.52;103113.19;5088293;28;20010;-61
2022/07/08 10:07:09;;;;;;;;;;;;;;;20.80;58.28;103119.53;5090701;28;19916;-61
2022/07/08 10:09:34;;;;;;;;;;;;;;;20.92;58.82;103121.63;5089256;28;19911;-60
2022/07/08 10:12:00;;;;;;;;;;;;;;;21.14;59.05;103127.16;5089947;28;19969;-61
2022/07/08 10:14:26;;;;;;;;;;;;;;;21.31;58.71;103118.72;5090570;28;19908;-60
2022/07/08 10:16:52;;;;;;;;;;;;;;;21.51;58.45;103121.69;5083618;28;19931;-60
2022/07/08 10:19:21;;;;;;;;;;;;;;;21.69;57.16;103128.59;5090365;28;20010;-61
2022/07/08 10:21:52;;;;;;;;;;;;;;;21.76;57.82;103129.50;5088433;28;20337;-61
2022/07/08 10:24:22;;;;;;;;;;;;;;;21.77;56.73;103126.63;5091294;28;20356;-61
2022/07/08 10:26:47;;;;;;;;;;;;;;;21.58;55.55;103116.38;5090039;28;20295;-61
2022/07/08 10:29:13;;;;;;;;;;;;;;;21.60;56.82;103127.84;5089678;28;19908;-61
2022/07/08 10:31:51;;;;;;;;;;;;;;;21.69;56.74;103124.03;5088724;28;19912;-61
2022/07/08 10:34:20;;;;;;;;;;;;;;;21.71;56.50;103116.56;5088163;28;19908;-61
2022/07/08 10:36:47;;;;;;;;;;;;;;;21.72;56.60;103120.94;5088227;28;20476;-61
2022/07/08 10:39:13;;;;;;;;;;;;;;;21.83;57.02;103125.84;5086222;28;19926;-61
2022/07/08 10:41:39;;;;;;;;;;;;;;;22.02;56.42;103123.56;5091497;28;20472;-61
2022/07/08 10:44:05;;;;;;;;;;;;;;;22.08;54.39;103123.69;5087999;28;19916;-61
2022/07/08 10:46:30;;;;;;;;;;;;;;;22.03;53.64;103112.56;5085668;28;19908;-60
2022/07/08 10:48:56;;;;;;;;;;;;;;;21.99;53.78;103113.13;5085922;28;19916;-61
2022/07/08 10:51:23;;;;;;;;;;;;;;;22.07;53.97;103121.16;5082652;28;20394;-61
2022/07/08 10:53:55;;;;;;;;;;;;;;;22.23;54.19;103112.78;5089615;28;20349;-61
2022/07/08 10:56:39;;;;;;;;;;;;;;;22.31;53.84;103117.25;5089425;28;20619;-61
2022/07/08 10:59:22;;;;;;;;;;;;;;;22.47;54.15;103106.16;5085531;28;19916;-61
2022/07/08 11:01:54;;;;;;;;;;;;;;;22.51;53.59;103110.13;5086845;28;19908;-61
2022/07/08 11:04:27;;;;;;;;;;;;;;;22.67;53.14;103109.03;5086159;28;19919;-61
2022/07/08 11:06:53;;;;;;;;;;;;;;;22.78;53.33;103111.19;5082717;28;19934;-61
2022/07/08 11:09:19;;;;;;;;;;;;;;;22.90;53.64;103111.56;5088082;28;20367;-61
2022/07/08 11:11:44;;;;;;;;;;;;;;;23.08;53.80;103111.88;5086078;28;20295;-61
2022/07/08 11:14:11;;;;;;;;;;;;;;;23.16;52.20;103117.16;5084202;28;20375;-61
2022/07/08 11:16:36;;;;;;;;;;;;;;;23.24;52.31;103103.44;5070105;28;19915;-61
2022/07/08 11:19:04;;;;;;;;;;;;;;;23.41;53.05;103102.03;5089276;28;19908;-61
2022/07/08 11:21:30;;;;;;;;;;;;;;;23.71;53.12;103108.09;5081710;28;19912;-60
2022/07/08 11:23:56;;;;;;;;;;;;;;;23.78;50.89;103108.09;5080845;28;19912;-61
2022/07/08 11:26:22;;;;;;;;;;;;;;;23.73;50.79;103108.72;5083095;28;20050;-61
2022/07/08 11:28:47;;;;;;;;;;;;;;;23.64;50.24;103115.34;5086892;28;20436;-61
2022/07/08 11:31:25;;;;;;;;;;;;;;;23.45;50.05;103099.78;5082406;28;19959;-61
2022/07/08 11:33:50;;;;;;;;;;;;;;;23.42;51.01;103108.34;5088183;28;19953;-61
2022/07/08 11:36:16;;;;;;;;;;;;;;;23.61;51.98;103112.19;5088630;28;19912;-61
2022/07/08 11:38:41;;;;;;;;;;;;;;;23.78;51.18;103098.09;5082814;28;19927;-61
2022/07/08 11:41:06;;;;;;;;;;;;;;;24.08;51.82;103105.91;5086896;28;19913;-60
2022/07/08 11:43:32;;;;;;;;;;;;;;;24.35;51.52;103109.53;5086354;28;19918;-61
2022/07/08 11:45:57;;;;;;;;;;;;;;;24.48;49.98;103106.81;5086251;28;20368;-61
2022/07/08 11:48:34;;;;;;;;;;;;;;;24.49;49.31;103104.94;5078496;28;20028;-61
2022/07/08 11:50:59;;;;;;;;;;;;;;;24.52;49.50;103107.22;5084489;28;20365;-61
2022/07/08 11:53:25;;;;;;;;;;;;;;;24.32;49.57;103101.78;5087843;28;19919;-61
2022/07/08 11:55:50;;;;;;;;;;;;;;;24.27;48.78;103099.63;5086139;28;19916;-60
2022/07/08 11:58:25;;;;;;;;;;;;;;;24.17;48.81;103093.78;5088881;28;19912;-61
2022/07/08 12:00:50;;;;;;;;;;;;;;;24.04;49.36;103099.22;5081666;28;19965;-61
2022/07/08 12:03:16;;;;;;;;;;;;;;;24.02;49.60;103093.97;5088337;28;19908;-61
2022/07/08 12:05:41;;;;;;;;;;;;;;;23.90;49.57;103092.88;5085296;28;20363;-61
2022/07/08 12:08:10;;;;;;;;;;;;;;;23.92;50.56;103093.53;5087591;28;19912;-61
2022/07/08 12:10:35;;;;;;;;;;;;;;;24.04;50.30;103088.34;5087648;28;19908;-61
2022/07/08 12:13:00;;;;;;;;;;;;;;;24.06;50.36;103087.09;5086431;28;19981;-61
2022/07/08 12:15:32;;;;;;;;;;;;;;;23.96;49.27;103092.06;5088476;28;20132;-61
2022/07/08 12:17:58;;;;;;;;;;;;;;;23.69;50.29;103090.31;5087812;28;19919;-61
2022/07/08 12:20:32;;;;;;;;;;;;;;;23.57;50.02;103084.63;5088237;28;19908;-61
2022/07/08 12:22:57;;;;;;;;;;;;;;;23.63;50.29;103088.41;5085556;28;19916;-61
2022/07/08 12:25:23;;;;;;;;;;;;;;;23.63;50.11;103078.41;5085269;28;19934;-61
2022/07/08 12:27:58;;;;;;;;;;;;;;;23.78;50.53;103080.97;5088965;28;19908;-61
2022/07/08 12:30:29;;;;;;;;;;;;;;;23.72;50.07;103084.50;5086131;28;19961;-61
2022/07/08 12:32:59;;;;;;;;;;;;;;;23.67;50.36;103084.25;5087116;28;19920;-60
2022/07/08 12:35:29;;;;;;;;;;;;;;;23.90;51.45;103082.03;5086265;28;20110;-61